sensor_id;sensor_type;location;lat;lon;timestamp;P1;durP1;ratioP1;P2;durP2;ratioP2
31402;SDS011;18039;52.188;21.024;2022-09-09T00:03:57;11.43;;;5.57;;
31402;SDS011;18039;52.188;21.024;2022-09-09T00:07:05;11.50;;;5.80;;
31402;SDS011;18039;52.188;21.024;2022-09-09T00:09:25;12.00;;;6.35;;
31402;SDS011;18039;52.188;21.024;2022-09-09T00:11:58;11.02;;;5.47;;
31402;SDS011;18039;52.188;21.024;2022-09-09T00:20:18;11.88;;;5.65;;
31402;SDS011;18039;52.188;21.024;2022-09-09T00:23:00;11.10;;;6.13;;
31402;SDS011;18039;52.188;21.024;2022-09-09T00:28:41;12.75;;;6.28;;
31402;SDS011;18039;52.188;21.024;2022-09-09T00:31:16;10.73;;;6.00;;
31402;SDS011;18039;52.188;21.024;2022-09-09T00:33:49;13.75;;;6.40;;
31402;SDS011;18039;52.188;21.024;2022-09-09T00:36:21;15.13;;;6.28;;
31402;SDS011;18039;52.188;21.024;2022-09-09T00:38:52;13.38;;;6.13;;
31402;SDS011;18039;52.188;21.024;2022-09-09T00:44:32;11.77;;;6.13;;
31402;SDS011;18039;52.188;21.024;2022-09-09T00:55:14;15.85;;;7.45;;
31402;SDS011;18039;52.188;21.024;2022-09-09T00:57:48;16.70;;;7.22;;
31402;SDS011;18039;52.188;21.024;2022-09-09T01:00:30;15.40;;;7.43;;
31402;SDS011;18039;52.188;21.024;2022-09-09T01:03:07;19.20;;;7.38;;
31402;SDS011;18039;52.188;21.024;2022-09-09T01:08:22;21.88;;;7.80;;
31402;SDS011;18039;52.188;21.024;2022-09-09T01:10:54;15.32;;;7.75;;
31402;SDS011;18039;52.188;21.024;2022-09-09T01:13:29;19.83;;;7.60;;
31402;SDS011;18039;52.188;21.024;2022-09-09T01:16:04;13.80;;;8.32;;
31402;SDS011;18039;52.188;21.024;2022-09-09T01:18:44;13.73;;;7.80;;
31402;SDS011;18039;52.188;21.024;2022-09-09T01:21:20;15.05;;;7.90;;
31402;SDS011;18039;52.188;21.024;2022-09-09T01:24:04;18.55;;;8.45;;
31402;SDS011;18039;52.188;21.024;2022-09-09T01:27:03;16.42;;;8.25;;
31402;SDS011;18039;52.188;21.024;2022-09-09T01:29:32;18.38;;;8.40;;
31402;SDS011;18039;52.188;21.024;2022-09-09T01:32:02;15.02;;;7.90;;
31402;SDS011;18039;52.188;21.024;2022-09-09T01:34:49;15.05;;;7.88;;
31402;SDS011;18039;52.188;21.024;2022-09-09T01:37:18;15.20;;;7.28;;
31402;SDS011;18039;52.188;21.024;2022-09-09T01:39:45;14.02;;;8.27;;
31402;SDS011;18039;52.188;21.024;2022-09-09T01:42:15;17.05;;;8.98;;
31402;SDS011;18039;52.188;21.024;2022-09-09T01:44:44;13.15;;;7.63;;
31402;SDS011;18039;52.188;21.024;2022-09-09T01:47:11;16.13;;;7.95;;
31402;SDS011;18039;52.188;21.024;2022-09-09T01:49:59;14.15;;;7.60;;
31402;SDS011;18039;52.188;21.024;2022-09-09T01:52:29;14.98;;;8.07;;
31402;SDS011;18039;52.188;21.024;2022-09-09T01:54:59;16.15;;;8.70;;
31402;SDS011;18039;52.188;21.024;2022-09-09T01:57:35;15.70;;;7.75;;
31402;SDS011;18039;52.188;21.024;2022-09-09T02:05:39;15.40;;;8.65;;
31402;SDS011;18039;52.188;21.024;2022-09-09T02:11:17;16.00;;;8.18;;
31402;SDS011;18039;52.188;21.024;2022-09-09T02:14:16;14.93;;;8.32;;
31402;SDS011;18039;52.188;21.024;2022-09-09T02:17:10;15.27;;;8.27;;
31402;SDS011;18039;52.188;21.024;2022-09-09T02:19:59;16.45;;;8.85;;
31402;SDS011;18039;52.188;21.024;2022-09-09T02:25:19;15.70;;;8.45;;
31402;SDS011;18039;52.188;21.024;2022-09-09T02:27:50;15.63;;;8.88;;
31402;SDS011;18039;52.188;21.024;2022-09-09T02:30:18;16.60;;;8.50;;
31402;SDS011;18039;52.188;21.024;2022-09-09T02:32:57;15.88;;;9.90;;
31402;SDS011;18039;52.188;21.024;2022-09-09T02:35:42;17.45;;;9.13;;
31402;SDS011;18039;52.188;21.024;2022-09-09T02:38:13;16.13;;;9.13;;
31402;SDS011;18039;52.188;21.024;2022-09-09T02:40:53;15.10;;;9.55;;
31402;SDS011;18039;52.188;21.024;2022-09-09T02:43:21;16.33;;;9.35;;
31402;SDS011;18039;52.188;21.024;2022-09-09T02:48:46;21.60;;;9.82;;
31402;SDS011;18039;52.188;21.024;2022-09-09T02:54:37;17.98;;;9.05;;
31402;SDS011;18039;52.188;21.024;2022-09-09T02:59:57;18.27;;;9.75;;
31402;SDS011;18039;52.188;21.024;2022-09-09T03:02:25;18.67;;;9.40;;
31402;SDS011;18039;52.188;21.024;2022-09-09T03:04:58;17.95;;;10.02;;
31402;SDS011;18039;52.188;21.024;2022-09-09T03:07:25;15.70;;;9.50;;
31402;SDS011;18039;52.188;21.024;2022-09-09T03:09:54;17.35;;;8.65;;
31402;SDS011;18039;52.188;21.024;2022-09-09T03:12:25;18.27;;;9.23;;
31402;SDS011;18039;52.188;21.024;2022-09-09T03:14:52;14.50;;;8.85;;
31402;SDS011;18039;52.188;21.024;2022-09-09T03:17:19;14.15;;;8.75;;
31402;SDS011;18039;52.188;21.024;2022-09-09T03:19:51;15.93;;;9.50;;
31402;SDS011;18039;52.188;21.024;2022-09-09T03:22:21;21.42;;;10.45;;
31402;SDS011;18039;52.188;21.024;2022-09-09T03:24:48;14.88;;;8.65;;
31402;SDS011;18039;52.188;21.024;2022-09-09T03:27:15;18.27;;;9.52;;
31402;SDS011;18039;52.188;21.024;2022-09-09T03:29:43;15.27;;;9.65;;
31402;SDS011;18039;52.188;21.024;2022-09-09T03:32:16;23.95;;;8.95;;
31402;SDS011;18039;52.188;21.024;2022-09-09T03:34:45;18.77;;;9.60;;
31402;SDS011;18039;52.188;21.024;2022-09-09T03:39:44;16.42;;;9.00;;
31402;SDS011;18039;52.188;21.024;2022-09-09T03:42:13;15.88;;;8.90;;
31402;SDS011;18039;52.188;21.024;2022-09-09T03:44:40;17.40;;;9.20;;
31402;SDS011;18039;52.188;21.024;2022-09-09T03:47:08;15.98;;;10.05;;
31402;SDS011;18039;52.188;21.024;2022-09-09T03:49:36;14.40;;;8.90;;
31402;SDS011;18039;52.188;21.024;2022-09-09T03:52:03;18.48;;;9.57;;
31402;SDS011;18039;52.188;21.024;2022-09-09T03:54:31;14.98;;;10.10;;
31402;SDS011;18039;52.188;21.024;2022-09-09T03:56:58;17.30;;;9.27;;
31402;SDS011;18039;52.188;21.024;2022-09-09T03:59:25;16.13;;;9.82;;
31402;SDS011;18039;52.188;21.024;2022-09-09T04:01:53;12.52;;;8.70;;
31402;SDS011;18039;52.188;21.024;2022-09-09T04:04:21;15.60;;;9.45;;
31402;SDS011;18039;52.188;21.024;2022-09-09T04:06:48;17.73;;;10.05;;
31402;SDS011;18039;52.188;21.024;2022-09-09T04:09:17;16.35;;;9.63;;
31402;SDS011;18039;52.188;21.024;2022-09-09T04:11:45;17.00;;;10.23;;
31402;SDS011;18039;52.188;21.024;2022-09-09T04:14:13;13.95;;;8.50;;
31402;SDS011;18039;52.188;21.024;2022-09-09T04:16:40;17.15;;;9.90;;
31402;SDS011;18039;52.188;21.024;2022-09-09T04:19:12;20.83;;;10.25;;
31402;SDS011;18039;52.188;21.024;2022-09-09T04:21:42;20.02;;;10.70;;
31402;SDS011;18039;52.188;21.024;2022-09-09T04:24:09;14.23;;;9.23;;
31402;SDS011;18039;52.188;21.024;2022-09-09T04:26:36;16.73;;;9.30;;
31402;SDS011;18039;52.188;21.024;2022-09-09T04:29:04;14.65;;;9.30;;
31402;SDS011;18039;52.188;21.024;2022-09-09T04:31:31;15.57;;;8.95;;
31402;SDS011;18039;52.188;21.024;2022-09-09T04:33:58;17.80;;;11.15;;
31402;SDS011;18039;52.188;21.024;2022-09-09T04:36:29;18.30;;;9.73;;
31402;SDS011;18039;52.188;21.024;2022-09-09T04:38:59;15.88;;;9.05;;
31402;SDS011;18039;52.188;21.024;2022-09-09T04:41:28;14.82;;;9.02;;
31402;SDS011;18039;52.188;21.024;2022-09-09T04:43:56;14.02;;;8.52;;
31402;SDS011;18039;52.188;21.024;2022-09-09T04:46:23;14.57;;;11.07;;
31402;SDS011;18039;52.188;21.024;2022-09-09T04:48:51;12.20;;;8.60;;
31402;SDS011;18039;52.188;21.024;2022-09-09T04:51:20;14.52;;;8.13;;
31402;SDS011;18039;52.188;21.024;2022-09-09T04:53:50;14.65;;;7.47;;
31402;SDS011;18039;52.188;21.024;2022-09-09T04:56:18;14.23;;;8.18;;
31402;SDS011;18039;52.188;21.024;2022-09-09T04:58:55;15.38;;;8.70;;
31402;SDS011;18039;52.188;21.024;2022-09-09T05:01:29;13.70;;;7.68;;
31402;SDS011;18039;52.188;21.024;2022-09-09T05:04:02;11.20;;;7.30;;
31402;SDS011;18039;52.188;21.024;2022-09-09T05:06:31;12.27;;;8.15;;
31402;SDS011;18039;52.188;21.024;2022-09-09T05:09:00;11.15;;;7.40;;
31402;SDS011;18039;52.188;21.024;2022-09-09T05:11:30;13.30;;;7.60;;
31402;SDS011;18039;52.188;21.024;2022-09-09T05:14:04;13.15;;;7.25;;
31402;SDS011;18039;52.188;21.024;2022-09-09T05:16:32;12.75;;;6.63;;
31402;SDS011;18039;52.188;21.024;2022-09-09T05:18:59;10.68;;;7.00;;
31402;SDS011;18039;52.188;21.024;2022-09-09T05:21:35;14.35;;;7.47;;
31402;SDS011;18039;52.188;21.024;2022-09-09T05:24:01;12.55;;;7.63;;
31402;SDS011;18039;52.188;21.024;2022-09-09T05:26:29;10.60;;;7.05;;
31402;SDS011;18039;52.188;21.024;2022-09-09T05:28:58;10.85;;;6.43;;
31402;SDS011;18039;52.188;21.024;2022-09-09T05:31:29;10.90;;;7.45;;
31402;SDS011;18039;52.188;21.024;2022-09-09T05:33:59;11.95;;;7.50;;
31402;SDS011;18039;52.188;21.024;2022-09-09T05:36:26;11.07;;;6.70;;
31402;SDS011;18039;52.188;21.024;2022-09-09T05:38:55;14.23;;;8.05;;
31402;SDS011;18039;52.188;21.024;2022-09-09T05:41:24;13.35;;;7.43;;
31402;SDS011;18039;52.188;21.024;2022-09-09T05:43:54;9.38;;;6.82;;
31402;SDS011;18039;52.188;21.024;2022-09-09T05:46:22;11.38;;;7.72;;
31402;SDS011;18039;52.188;21.024;2022-09-09T05:48:53;9.40;;;7.28;;
31402;SDS011;18039;52.188;21.024;2022-09-09T05:51:29;12.73;;;7.43;;
31402;SDS011;18039;52.188;21.024;2022-09-09T05:54:00;9.35;;;6.85;;
31402;SDS011;18039;52.188;21.024;2022-09-09T05:56:31;9.27;;;6.82;;
31402;SDS011;18039;52.188;21.024;2022-09-09T05:58:59;11.02;;;6.60;;
31402;SDS011;18039;52.188;21.024;2022-09-09T06:01:29;11.55;;;7.55;;
31402;SDS011;18039;52.188;21.024;2022-09-09T06:03:59;11.60;;;7.80;;
31402;SDS011;18039;52.188;21.024;2022-09-09T06:06:29;12.98;;;7.85;;
31402;SDS011;18039;52.188;21.024;2022-09-09T06:08:59;13.63;;;8.30;;
31402;SDS011;18039;52.188;21.024;2022-09-09T06:11:32;11.55;;;8.07;;
31402;SDS011;18039;52.188;21.024;2022-09-09T06:14:00;13.95;;;7.85;;
31402;SDS011;18039;52.188;21.024;2022-09-09T06:16:29;11.07;;;7.35;;
31402;SDS011;18039;52.188;21.024;2022-09-09T06:18:59;9.90;;;7.53;;
31402;SDS011;18039;52.188;21.024;2022-09-09T06:21:30;13.15;;;7.53;;
31402;SDS011;18039;52.188;21.024;2022-09-09T06:24:00;12.10;;;8.18;;
31402;SDS011;18039;52.188;21.024;2022-09-09T06:26:32;11.65;;;7.97;;
31402;SDS011;18039;52.188;21.024;2022-09-09T06:29:02;17.70;;;8.60;;
31402;SDS011;18039;52.188;21.024;2022-09-09T06:31:31;16.00;;;9.48;;
31402;SDS011;18039;52.188;21.024;2022-09-09T06:34:11;12.13;;;7.63;;
31402;SDS011;18039;52.188;21.024;2022-09-09T06:36:40;14.05;;;9.07;;
31402;SDS011;18039;52.188;21.024;2022-09-09T06:39:07;14.25;;;8.13;;
31402;SDS011;18039;52.188;21.024;2022-09-09T06:41:41;12.95;;;8.00;;
31402;SDS011;18039;52.188;21.024;2022-09-09T06:44:28;11.73;;;7.90;;
31402;SDS011;18039;52.188;21.024;2022-09-09T06:47:02;13.18;;;8.38;;
31402;SDS011;18039;52.188;21.024;2022-09-09T06:49:31;14.93;;;9.35;;
31402;SDS011;18039;52.188;21.024;2022-09-09T06:51:59;14.68;;;9.13;;
31402;SDS011;18039;52.188;21.024;2022-09-09T06:54:28;18.63;;;9.18;;
31402;SDS011;18039;52.188;21.024;2022-09-09T06:56:55;18.27;;;10.38;;
31402;SDS011;18039;52.188;21.024;2022-09-09T06:59:23;15.82;;;9.27;;
31402;SDS011;18039;52.188;21.024;2022-09-09T07:01:53;13.98;;;9.13;;
31402;SDS011;18039;52.188;21.024;2022-09-09T07:04:23;15.88;;;9.77;;
31402;SDS011;18039;52.188;21.024;2022-09-09T07:06:50;13.65;;;9.93;;
31402;SDS011;18039;52.188;21.024;2022-09-09T07:09:24;14.88;;;9.32;;
31402;SDS011;18039;52.188;21.024;2022-09-09T07:11:53;20.77;;;10.30;;
31402;SDS011;18039;52.188;21.024;2022-09-09T07:14:23;18.33;;;11.20;;
31402;SDS011;18039;52.188;21.024;2022-09-09T07:16:57;15.40;;;10.65;;
31402;SDS011;18039;52.188;21.024;2022-09-09T07:19:28;16.42;;;10.50;;
31402;SDS011;18039;52.188;21.024;2022-09-09T07:21:56;18.13;;;10.82;;
31402;SDS011;18039;52.188;21.024;2022-09-09T07:24:24;19.30;;;10.80;;
31402;SDS011;18039;52.188;21.024;2022-09-09T07:26:51;17.15;;;10.82;;
31402;SDS011;18039;52.188;21.024;2022-09-09T07:29:19;16.90;;;11.18;;
31402;SDS011;18039;52.188;21.024;2022-09-09T07:31:49;19.83;;;11.95;;
31402;SDS011;18039;52.188;21.024;2022-09-09T07:34:23;19.25;;;11.63;;
31402;SDS011;18039;52.188;21.024;2022-09-09T07:36:51;15.77;;;11.60;;
31402;SDS011;18039;52.188;21.024;2022-09-09T07:39:18;16.05;;;10.80;;
31402;SDS011;18039;52.188;21.024;2022-09-09T07:41:49;20.38;;;12.13;;
31402;SDS011;18039;52.188;21.024;2022-09-09T07:44:22;21.02;;;11.82;;
31402;SDS011;18039;52.188;21.024;2022-09-09T07:47:08;17.67;;;11.88;;
31402;SDS011;18039;52.188;21.024;2022-09-09T07:49:42;16.48;;;11.07;;
31402;SDS011;18039;52.188;21.024;2022-09-09T07:52:10;19.02;;;12.30;;
31402;SDS011;18039;52.188;21.024;2022-09-09T07:54:45;16.27;;;11.32;;
31402;SDS011;18039;52.188;21.024;2022-09-09T07:57:13;23.85;;;11.65;;
31402;SDS011;18039;52.188;21.024;2022-09-09T07:59:40;25.23;;;12.68;;
31402;SDS011;18039;52.188;21.024;2022-09-09T08:02:08;19.00;;;12.98;;
31402;SDS011;18039;52.188;21.024;2022-09-09T08:04:36;18.80;;;11.20;;
31402;SDS011;18039;52.188;21.024;2022-09-09T08:07:03;21.55;;;12.60;;
31402;SDS011;18039;52.188;21.024;2022-09-09T08:09:37;17.52;;;11.57;;
31402;SDS011;18039;52.188;21.024;2022-09-09T08:12:10;18.17;;;12.10;;
31402;SDS011;18039;52.188;21.024;2022-09-09T08:14:38;18.15;;;11.90;;
31402;SDS011;18039;52.188;21.024;2022-09-09T08:17:05;18.70;;;12.20;;
31402;SDS011;18039;52.188;21.024;2022-09-09T08:19:33;19.83;;;13.05;;
31402;SDS011;18039;52.188;21.024;2022-09-09T08:22:06;21.23;;;12.68;;
31402;SDS011;18039;52.188;21.024;2022-09-09T08:24:35;19.45;;;12.68;;
31402;SDS011;18039;52.188;21.024;2022-09-09T08:27:03;18.33;;;12.38;;
31402;SDS011;18039;52.188;21.024;2022-09-09T08:29:30;19.83;;;12.85;;
31402;SDS011;18039;52.188;21.024;2022-09-09T08:31:57;24.15;;;14.07;;
31402;SDS011;18039;52.188;21.024;2022-09-09T08:34:26;29.10;;;13.88;;
31402;SDS011;18039;52.188;21.024;2022-09-09T08:36:56;23.73;;;14.40;;
31402;SDS011;18039;52.188;21.024;2022-09-09T08:39:29;23.38;;;13.45;;
31402;SDS011;18039;52.188;21.024;2022-09-09T08:42:01;20.02;;;12.40;;
31402;SDS011;18039;52.188;21.024;2022-09-09T08:44:44;24.52;;;13.32;;
31402;SDS011;18039;52.188;21.024;2022-09-09T08:48:07;21.40;;;13.85;;
31402;SDS011;18039;52.188;21.024;2022-09-09T08:50:25;26.98;;;13.82;;
31402;SDS011;18039;52.188;21.024;2022-09-09T08:53:13;21.80;;;13.25;;
31402;SDS011;18039;52.188;21.024;2022-09-09T08:55:54;24.33;;;14.35;;
31402;SDS011;18039;52.188;21.024;2022-09-09T08:58:43;21.70;;;14.50;;
31402;SDS011;18039;52.188;21.024;2022-09-09T09:01:19;23.88;;;13.65;;
31402;SDS011;18039;52.188;21.024;2022-09-09T09:04:14;23.52;;;13.20;;
31402;SDS011;18039;52.188;21.024;2022-09-09T09:07:13;22.02;;;14.35;;
31402;SDS011;18039;52.188;21.024;2022-09-09T09:12:21;23.73;;;13.98;;
31402;SDS011;18039;52.188;21.024;2022-09-09T09:14:54;24.38;;;14.52;;
31402;SDS011;18039;52.188;21.024;2022-09-09T09:17:26;22.10;;;14.23;;
31402;SDS011;18039;52.188;21.024;2022-09-09T09:19:59;23.63;;;13.77;;
31402;SDS011;18039;52.188;21.024;2022-09-09T09:22:32;25.45;;;14.35;;
31402;SDS011;18039;52.188;21.024;2022-09-09T09:30:39;27.67;;;13.98;;
31402;SDS011;18039;52.188;21.024;2022-09-09T09:35:52;22.92;;;15.48;;
31402;SDS011;18039;52.188;21.024;2022-09-09T09:38:22;30.20;;;14.93;;
31402;SDS011;18039;52.188;21.024;2022-09-09T09:41:11;25.65;;;14.45;;
31402;SDS011;18039;52.188;21.024;2022-09-09T09:43:40;25.25;;;15.02;;
31402;SDS011;18039;52.188;21.024;2022-09-09T09:46:21;32.70;;;16.13;;
31402;SDS011;18039;52.188;21.024;2022-09-09T09:49:03;27.92;;;16.27;;
31402;SDS011;18039;52.188;21.024;2022-09-09T09:51:33;30.02;;;16.30;;
31402;SDS011;18039;52.188;21.024;2022-09-09T09:57:09;25.63;;;16.33;;
31402;SDS011;18039;52.188;21.024;2022-09-09T09:59:39;28.15;;;15.82;;
31402;SDS011;18039;52.188;21.024;2022-09-09T10:02:20;29.77;;;15.82;;
31402;SDS011;18039;52.188;21.024;2022-09-09T10:07:32;28.85;;;16.90;;
31402;SDS011;18039;52.188;21.024;2022-09-09T10:09:59;30.65;;;17.20;;
31402;SDS011;18039;52.188;21.024;2022-09-09T10:12:34;25.08;;;16.10;;
31402;SDS011;18039;52.188;21.024;2022-09-09T10:15:32;29.77;;;17.42;;
31402;SDS011;18039;52.188;21.024;2022-09-09T10:21:16;34.72;;;17.77;;
31402;SDS011;18039;52.188;21.024;2022-09-09T10:26:53;37.20;;;18.85;;
31402;SDS011;18039;52.188;21.024;2022-09-09T10:30:00;30.25;;;18.58;;
31402;SDS011;18039;52.188;21.024;2022-09-09T10:32:37;32.20;;;18.15;;
31402;SDS011;18039;52.188;21.024;2022-09-09T10:35:19;39.40;;;19.73;;
31402;SDS011;18039;52.188;21.024;2022-09-09T10:40:31;34.95;;;20.52;;
31402;SDS011;18039;52.188;21.024;2022-09-09T10:43:08;38.35;;;20.02;;
31402;SDS011;18039;52.188;21.024;2022-09-09T10:45:45;35.78;;;21.25;;
31402;SDS011;18039;52.188;21.024;2022-09-09T10:53:44;36.20;;;20.33;;
31402;SDS011;18039;52.188;21.024;2022-09-09T10:56:19;40.10;;;21.05;;
31402;SDS011;18039;52.188;21.024;2022-09-09T10:58:55;34.55;;;20.13;;
31402;SDS011;18039;52.188;21.024;2022-09-09T11:01:28;39.97;;;20.67;;
31402;SDS011;18039;52.188;21.024;2022-09-09T11:07:02;39.60;;;20.85;;
31402;SDS011;18039;52.188;21.024;2022-09-09T11:09:47;39.55;;;21.38;;
31402;SDS011;18039;52.188;21.024;2022-09-09T11:12:33;42.55;;;22.83;;
31402;SDS011;18039;52.188;21.024;2022-09-09T11:15:04;43.23;;;21.50;;
31402;SDS011;18039;52.188;21.024;2022-09-09T11:17:36;43.50;;;21.70;;
31402;SDS011;18039;52.188;21.024;2022-09-09T11:20:13;41.75;;;22.35;;
31402;SDS011;18039;52.188;21.024;2022-09-09T11:25:21;49.00;;;23.73;;
31402;SDS011;18039;52.188;21.024;2022-09-09T11:33:58;39.30;;;22.13;;
31402;SDS011;18039;52.188;21.024;2022-09-09T11:42:18;51.40;;;25.60;;
31402;SDS011;18039;52.188;21.024;2022-09-09T11:44:47;48.17;;;25.00;;
31402;SDS011;18039;52.188;21.024;2022-09-09T11:47:28;46.88;;;24.40;;
31402;SDS011;18039;52.188;21.024;2022-09-09T11:50:07;51.30;;;25.55;;
31402;SDS011;18039;52.188;21.024;2022-09-09T11:52:39;50.42;;;24.15;;
31402;SDS011;18039;52.188;21.024;2022-09-09T11:55:28;52.45;;;25.27;;
31402;SDS011;18039;52.188;21.024;2022-09-09T11:58:00;60.03;;;26.40;;
31402;SDS011;18039;52.188;21.024;2022-09-09T12:00:35;49.38;;;24.35;;
31402;SDS011;18039;52.188;21.024;2022-09-09T12:03:33;56.40;;;25.95;;
31402;SDS011;18039;52.188;21.024;2022-09-09T12:06:28;47.03;;;24.73;;
31402;SDS011;18039;52.188;21.024;2022-09-09T12:09:08;52.42;;;25.88;;
31402;SDS011;18039;52.188;21.024;2022-09-09T12:11:44;49.20;;;24.50;;
31402;SDS011;18039;52.188;21.024;2022-09-09T12:17:17;44.08;;;24.40;;
31402;SDS011;18039;52.188;21.024;2022-09-09T12:19:47;56.10;;;26.63;;
31402;SDS011;18039;52.188;21.024;2022-09-09T12:22:26;66.05;;;28.98;;
31402;SDS011;18039;52.188;21.024;2022-09-09T12:27:59;54.90;;;25.95;;
31402;SDS011;18039;52.188;21.024;2022-09-09T12:33:35;56.03;;;26.20;;
31402;SDS011;18039;52.188;21.024;2022-09-09T12:36:04;59.33;;;28.60;;
31402;SDS011;18039;52.188;21.024;2022-09-09T12:38:37;52.10;;;26.95;;
31402;SDS011;18039;52.188;21.024;2022-09-09T12:41:06;52.38;;;27.85;;
31402;SDS011;18039;52.188;21.024;2022-09-09T12:43:33;58.65;;;26.60;;
31402;SDS011;18039;52.188;21.024;2022-09-09T12:46:01;57.03;;;28.30;;
31402;SDS011;18039;52.188;21.024;2022-09-09T12:48:36;57.17;;;26.92;;
31402;SDS011;18039;52.188;21.024;2022-09-09T12:51:07;54.10;;;26.90;;
31402;SDS011;18039;52.188;21.024;2022-09-09T12:53:54;56.60;;;26.60;;
31402;SDS011;18039;52.188;21.024;2022-09-09T12:56:27;53.20;;;27.10;;
31402;SDS011;18039;52.188;21.024;2022-09-09T12:58:57;53.72;;;25.50;;
31402;SDS011;18039;52.188;21.024;2022-09-09T13:01:29;54.03;;;26.10;;
31402;SDS011;18039;52.188;21.024;2022-09-09T13:03:57;59.75;;;27.83;;
31402;SDS011;18039;52.188;21.024;2022-09-09T13:06:26;56.95;;;25.38;;
31402;SDS011;18039;52.188;21.024;2022-09-09T13:08:59;53.20;;;24.95;;
31402;SDS011;18039;52.188;21.024;2022-09-09T13:13:57;52.72;;;25.45;;
31402;SDS011;18039;52.188;21.024;2022-09-09T13:16:26;51.35;;;25.60;;
31402;SDS011;18039;52.188;21.024;2022-09-09T13:19:02;53.28;;;25.40;;
31402;SDS011;18039;52.188;21.024;2022-09-09T13:21:35;54.65;;;25.48;;
31402;SDS011;18039;52.188;21.024;2022-09-09T13:27:19;56.50;;;25.00;;
31402;SDS011;18039;52.188;21.024;2022-09-09T13:38:24;56.10;;;26.58;;
31402;SDS011;18039;52.188;21.024;2022-09-09T13:43:22;60.28;;;24.63;;
31402;SDS011;18039;52.188;21.024;2022-09-09T13:45:55;55.70;;;25.30;;
31402;SDS011;18039;52.188;21.024;2022-09-09T13:48:28;53.80;;;24.63;;
31402;SDS011;18039;52.188;21.024;2022-09-09T13:51:32;48.75;;;25.20;;
31402;SDS011;18039;52.188;21.024;2022-09-09T13:53:56;57.05;;;25.50;;
31402;SDS011;18039;52.188;21.024;2022-09-09T13:56:24;59.42;;;25.05;;
31402;SDS011;18039;52.188;21.024;2022-09-09T13:58:51;59.22;;;24.92;;
31402;SDS011;18039;52.188;21.024;2022-09-09T14:01:18;61.00;;;26.85;;
31402;SDS011;18039;52.188;21.024;2022-09-09T14:03:45;62.50;;;24.80;;
31402;SDS011;18039;52.188;21.024;2022-09-09T14:06:12;51.65;;;24.35;;
31402;SDS011;18039;52.188;21.024;2022-09-09T14:08:40;56.42;;;25.73;;
31402;SDS011;18039;52.188;21.024;2022-09-09T14:11:08;64.18;;;25.52;;
31402;SDS011;18039;52.188;21.024;2022-09-09T14:13:39;63.65;;;25.08;;
31402;SDS011;18039;52.188;21.024;2022-09-09T14:16:06;57.50;;;25.10;;
31402;SDS011;18039;52.188;21.024;2022-09-09T14:18:33;54.58;;;24.77;;
31402;SDS011;18039;52.188;21.024;2022-09-09T14:21:00;56.45;;;24.48;;
31402;SDS011;18039;52.188;21.024;2022-09-09T14:23:29;61.35;;;25.77;;
31402;SDS011;18039;52.188;21.024;2022-09-09T14:25:57;68.85;;;25.90;;
31402;SDS011;18039;52.188;21.024;2022-09-09T14:28:24;50.78;;;23.65;;
31402;SDS011;18039;52.188;21.024;2022-09-09T14:31:12;61.53;;;24.98;;
31402;SDS011;18039;52.188;21.024;2022-09-09T14:33:40;58.75;;;25.05;;
31402;SDS011;18039;52.188;21.024;2022-09-09T14:36:07;57.38;;;25.08;;
31402;SDS011;18039;52.188;21.024;2022-09-09T14:38:36;64.82;;;26.35;;
31402;SDS011;18039;52.188;21.024;2022-09-09T14:41:06;60.38;;;27.08;;
31402;SDS011;18039;52.188;21.024;2022-09-09T14:43:33;55.95;;;25.02;;
31402;SDS011;18039;52.188;21.024;2022-09-09T14:46:19;60.42;;;26.15;;
31402;SDS011;18039;52.188;21.024;2022-09-09T14:48:46;57.75;;;26.60;;
31402;SDS011;18039;52.188;21.024;2022-09-09T14:51:16;53.65;;;25.50;;
31402;SDS011;18039;52.188;21.024;2022-09-09T14:53:52;50.20;;;25.23;;
31402;SDS011;18039;52.188;21.024;2022-09-09T14:56:21;61.10;;;24.80;;
31402;SDS011;18039;52.188;21.024;2022-09-09T14:58:50;56.88;;;25.15;;
31402;SDS011;18039;52.188;21.024;2022-09-09T15:01:18;55.47;;;26.20;;
31402;SDS011;18039;52.188;21.024;2022-09-09T15:03:54;56.38;;;26.30;;
31402;SDS011;18039;52.188;21.024;2022-09-09T15:06:26;60.85;;;26.45;;
31402;SDS011;18039;52.188;21.024;2022-09-09T15:08:56;50.05;;;25.45;;
31402;SDS011;18039;52.188;21.024;2022-09-09T15:13:57;60.03;;;25.08;;
31402;SDS011;18039;52.188;21.024;2022-09-09T15:16:26;52.30;;;25.25;;
31402;SDS011;18039;52.188;21.024;2022-09-09T15:18:55;53.83;;;25.05;;
31402;SDS011;18039;52.188;21.024;2022-09-09T15:21:25;51.08;;;25.25;;
31402;SDS011;18039;52.188;21.024;2022-09-09T15:23:57;54.33;;;25.15;;
31402;SDS011;18039;52.188;21.024;2022-09-09T15:26:26;42.35;;;23.40;;
31402;SDS011;18039;52.188;21.024;2022-09-09T15:28:54;56.40;;;25.65;;
31402;SDS011;18039;52.188;21.024;2022-09-09T15:31:24;55.90;;;26.80;;
31402;SDS011;18039;52.188;21.024;2022-09-09T15:33:58;56.88;;;26.17;;
31402;SDS011;18039;52.188;21.024;2022-09-09T15:36:31;50.67;;;25.33;;
31402;SDS011;18039;52.188;21.024;2022-09-09T15:39:04;53.38;;;24.00;;
31402;SDS011;18039;52.188;21.024;2022-09-09T15:41:33;50.92;;;25.98;;
31402;SDS011;18039;52.188;21.024;2022-09-09T15:44:00;49.95;;;25.45;;
31402;SDS011;18039;52.188;21.024;2022-09-09T15:46:31;51.50;;;25.83;;
31402;SDS011;18039;52.188;21.024;2022-09-09T15:51:31;52.42;;;25.48;;
31402;SDS011;18039;52.188;21.024;2022-09-09T15:54:15;51.40;;;25.15;;
31402;SDS011;18039;52.188;21.024;2022-09-09T15:56:45;59.30;;;25.70;;
31402;SDS011;18039;52.188;21.024;2022-09-09T15:59:14;45.72;;;22.92;;
31402;SDS011;18039;52.188;21.024;2022-09-09T16:01:42;49.05;;;25.30;;
31402;SDS011;18039;52.188;21.024;2022-09-09T16:04:10;47.75;;;24.00;;
31402;SDS011;18039;52.188;21.024;2022-09-09T16:06:37;47.13;;;24.55;;
31402;SDS011;18039;52.188;21.024;2022-09-09T16:09:06;54.22;;;24.98;;
31402;SDS011;18039;52.188;21.024;2022-09-09T16:11:35;56.35;;;24.60;;
31402;SDS011;18039;52.188;21.024;2022-09-09T16:14:03;52.15;;;27.10;;
31402;SDS011;18039;52.188;21.024;2022-09-09T16:16:32;46.53;;;24.52;;
31402;SDS011;18039;52.188;21.024;2022-09-09T16:19:00;46.38;;;23.85;;
31402;SDS011;18039;52.188;21.024;2022-09-09T16:21:30;45.03;;;23.52;;
31402;SDS011;18039;52.188;21.024;2022-09-09T16:23:59;45.40;;;24.10;;
31402;SDS011;18039;52.188;21.024;2022-09-09T16:26:30;46.13;;;23.95;;
31402;SDS011;18039;52.188;21.024;2022-09-09T16:28:59;46.90;;;24.48;;
31402;SDS011;18039;52.188;21.024;2022-09-09T16:31:28;42.10;;;23.13;;
31402;SDS011;18039;52.188;21.024;2022-09-09T16:33:56;44.22;;;23.83;;
31402;SDS011;18039;52.188;21.024;2022-09-09T16:36:24;46.35;;;23.40;;
31402;SDS011;18039;52.188;21.024;2022-09-09T16:38:54;41.47;;;23.08;;
31402;SDS011;18039;52.188;21.024;2022-09-09T16:41:24;54.03;;;23.55;;
31402;SDS011;18039;52.188;21.024;2022-09-09T16:44:00;42.15;;;22.70;;
31402;SDS011;18039;52.188;21.024;2022-09-09T16:46:30;53.53;;;24.20;;
31402;SDS011;18039;52.188;21.024;2022-09-09T16:48:58;42.10;;;22.48;;
31402;SDS011;18039;52.188;21.024;2022-09-09T16:51:29;39.33;;;21.20;;